Terminal Aerodrome Forecast
Issued by NWS

Home | Current Version | Previous Version | Text Only | Print | Product List | Glossary On
Versions: 1 2 3 4 5 6 7 8 9 10 11 12 13 14
000
FTUS43 KDTX 231723
TAFPTK
TAF
KPTK 231723Z 2318/2418 22010G18KT P6SM SCT045
     FM240000 17004KT P6SM SCT250
     FM241300 17008KT P6SM BKN080 PROB30 2416/2418 -SHRA OVC050=

USA.gov is the U.S. government's official web portal to all federal, state and local government web resources and services.